Terminal Aerodrome Forecast
Issued by NWS Amarillo, TX

Home | Current Version | Previous Version | Text Only | Print | Product List | Glossary On
Versions: 1 2 3 4 5 6 7 8 9 10 11 12 13 14 15 16 17 18 19 20 21
000
FTUS44 KAMA 311700
TAFGUY
TAF
KGUY 311720Z 3118/0118 19009KT 4SM RA BR VCTS BKN100CB OVC120
     FM312000 15008KT P6SM VCSH SCT050 BKN100
     FM010300 19005KT 6SM BR VCTS FEW020 BKN050CB
     FM010600 20005KT 6SM BR VCTS BKN050CB OVC080=

USA.gov is the U.S. government's official web portal to all federal, state and local government web resources and services.